Terminal Aerodrome Forecast
Issued by NWS

Home | Current Version | Previous Version | Text Only | Print | Product List | Glossary On
Versions: 1 2 3 4 5 6 7 8 9 10 11 12 13 14 15 16 17 18 19 20 21 22 23 24 25 26
000
FTUS41 KBOX 261132
TAFACK
TAF
KACK 261132Z 2612/2712 03006KT P6SM FEW080 OVC100
     FM261300 04013KT 3SM -RA OVC060
     FM261800 06020G27KT 2SM +RA OVC010
     FM262300 03022KT 1SM RA OVC008
     FM270300 34018KT 3SM -RA OVC008
     FM270500 31016G25KT P6SM OVC008
     FM270900 31016G32KT P6SM BKN015=

USA.gov is the U.S. government's official web portal to all federal, state and local government web resources and services.